sensor_id;sensor_type;location;lat;lon;timestamp;P1;durP1;ratioP1;P2;durP2;ratioP2
23046;SDS011;11691;51.462;6.902;2022-10-29T00:00:04;11.95;;;5.60;;
23046;SDS011;11691;51.462;6.902;2022-10-29T00:02:30;15.45;;;6.50;;
23046;SDS011;11691;51.462;6.902;2022-10-29T00:04:56;17.92;;;5.95;;
23046;SDS011;11691;51.462;6.902;2022-10-29T00:07:22;15.88;;;5.60;;
23046;SDS011;11691;51.462;6.902;2022-10-29T00:09:48;16.67;;;6.00;;
23046;SDS011;11691;51.462;6.902;2022-10-29T00:12:14;10.85;;;5.03;;
23046;SDS011;11691;51.462;6.902;2022-10-29T00:14:40;10.73;;;5.10;;
23046;SDS011;11691;51.462;6.902;2022-10-29T00:17:06;12.25;;;4.95;;
23046;SDS011;11691;51.462;6.902;2022-10-29T00:19:32;12.40;;;5.45;;
23046;SDS011;11691;51.462;6.902;2022-10-29T00:21:58;11.82;;;6.00;;
23046;SDS011;11691;51.462;6.902;2022-10-29T00:24:24;16.05;;;6.05;;
23046;SDS011;11691;51.462;6.902;2022-10-29T00:26:50;10.93;;;5.45;;
23046;SDS011;11691;51.462;6.902;2022-10-29T00:29:16;13.07;;;5.50;;
23046;SDS011;11691;51.462;6.902;2022-10-29T00:31:42;10.07;;;5.50;;
23046;SDS011;11691;51.462;6.902;2022-10-29T00:34:07;14.15;;;5.80;;
23046;SDS011;11691;51.462;6.902;2022-10-29T00:36:33;14.65;;;6.07;;
23046;SDS011;11691;51.462;6.902;2022-10-29T00:38:59;13.52;;;5.78;;
23046;SDS011;11691;51.462;6.902;2022-10-29T00:41:26;19.92;;;6.13;;
23046;SDS011;11691;51.462;6.902;2022-10-29T00:46:37;12.73;;;5.53;;
23046;SDS011;11691;51.462;6.902;2022-10-29T00:49:04;14.55;;;6.75;;
23046;SDS011;11691;51.462;6.902;2022-10-29T00:51:30;20.15;;;6.75;;
23046;SDS011;11691;51.462;6.902;2022-10-29T00:56:28;14.75;;;6.13;;
23046;SDS011;11691;51.462;6.902;2022-10-29T00:58:55;10.30;;;5.63;;
23046;SDS011;11691;51.462;6.902;2022-10-29T01:01:22;17.60;;;6.68;;
23046;SDS011;11691;51.462;6.902;2022-10-29T01:03:48;11.40;;;6.32;;
23046;SDS011;11691;51.462;6.902;2022-10-29T01:06:15;16.67;;;5.75;;
23046;SDS011;11691;51.462;6.902;2022-10-29T01:08:41;16.08;;;6.15;;
23046;SDS011;11691;51.462;6.902;2022-10-29T01:19:04;12.57;;;5.60;;
23046;SDS011;11691;51.462;6.902;2022-10-29T01:21:39;12.68;;;6.03;;
23046;SDS011;11691;51.462;6.902;2022-10-29T01:32:37;17.65;;;6.70;;
23046;SDS011;11691;51.462;6.902;2022-10-29T01:35:09;13.98;;;5.90;;
23046;SDS011;11691;51.462;6.902;2022-10-29T01:40:33;15.70;;;6.03;;
23046;SDS011;11691;51.462;6.902;2022-10-29T01:43:06;20.27;;;6.10;;
23046;SDS011;11691;51.462;6.902;2022-10-29T01:46:04;15.98;;;6.28;;
23046;SDS011;11691;51.462;6.902;2022-10-29T01:48:32;13.40;;;6.15;;
23046;SDS011;11691;51.462;6.902;2022-10-29T01:51:01;18.98;;;7.00;;
23046;SDS011;11691;51.462;6.902;2022-10-29T01:53:28;16.58;;;5.88;;
23046;SDS011;11691;51.462;6.902;2022-10-29T01:55:55;13.65;;;6.18;;
23046;SDS011;11691;51.462;6.902;2022-10-29T01:58:21;11.73;;;6.50;;
23046;SDS011;11691;51.462;6.902;2022-10-29T02:11:20;14.95;;;5.57;;
23046;SDS011;11691;51.462;6.902;2022-10-29T02:13:50;12.43;;;6.30;;
23046;SDS011;11691;51.462;6.902;2022-10-29T02:16:18;18.58;;;6.05;;
23046;SDS011;11691;51.462;6.902;2022-10-29T02:18:46;17.00;;;6.25;;
23046;SDS011;11691;51.462;6.902;2022-10-29T02:21:16;12.95;;;6.55;;
23046;SDS011;11691;51.462;6.902;2022-10-29T02:23:43;15.75;;;6.95;;
23046;SDS011;11691;51.462;6.902;2022-10-29T02:26:09;14.73;;;6.75;;
23046;SDS011;11691;51.462;6.902;2022-10-29T02:28:35;13.60;;;6.45;;
23046;SDS011;11691;51.462;6.902;2022-10-29T02:31:01;14.30;;;6.03;;
23046;SDS011;11691;51.462;6.902;2022-10-29T02:33:27;21.48;;;6.55;;
23046;SDS011;11691;51.462;6.902;2022-10-29T02:35:53;17.02;;;6.40;;
23046;SDS011;11691;51.462;6.902;2022-10-29T02:38:19;18.65;;;7.05;;
23046;SDS011;11691;51.462;6.902;2022-10-29T02:40:45;15.77;;;6.45;;
23046;SDS011;11691;51.462;6.902;2022-10-29T02:43:11;20.67;;;6.50;;
23046;SDS011;11691;51.462;6.902;2022-10-29T02:45:37;16.63;;;7.03;;
23046;SDS011;11691;51.462;6.902;2022-10-29T02:48:03;19.42;;;8.02;;
23046;SDS011;11691;51.462;6.902;2022-10-29T02:50:29;12.63;;;6.03;;
23046;SDS011;11691;51.462;6.902;2022-10-29T02:52:55;16.80;;;6.90;;
23046;SDS011;11691;51.462;6.902;2022-10-29T02:55:21;12.10;;;6.25;;
23046;SDS011;11691;51.462;6.902;2022-10-29T02:57:47;15.80;;;6.45;;
23046;SDS011;11691;51.462;6.902;2022-10-29T03:00:13;16.85;;;7.20;;
23046;SDS011;11691;51.462;6.902;2022-10-29T03:02:39;15.50;;;6.80;;
23046;SDS011;11691;51.462;6.902;2022-10-29T03:05:06;15.52;;;6.75;;
23046;SDS011;11691;51.462;6.902;2022-10-29T03:07:35;14.05;;;6.90;;
23046;SDS011;11691;51.462;6.902;2022-10-29T03:10:02;18.02;;;6.85;;
23046;SDS011;11691;51.462;6.902;2022-10-29T03:12:29;16.63;;;7.63;;
23046;SDS011;11691;51.462;6.902;2022-10-29T03:14:55;17.50;;;6.50;;
23046;SDS011;11691;51.462;6.902;2022-10-29T03:17:21;17.33;;;7.35;;
23046;SDS011;11691;51.462;6.902;2022-10-29T03:19:47;14.00;;;6.60;;
23046;SDS011;11691;51.462;6.902;2022-10-29T03:22:13;19.05;;;6.72;;
23046;SDS011;11691;51.462;6.902;2022-10-29T03:24:39;16.35;;;7.22;;
23046;SDS011;11691;51.462;6.902;2022-10-29T03:27:05;20.17;;;7.38;;
23046;SDS011;11691;51.462;6.902;2022-10-29T03:29:30;23.92;;;7.47;;
23046;SDS011;11691;51.462;6.902;2022-10-29T03:31:56;15.07;;;7.18;;
23046;SDS011;11691;51.462;6.902;2022-10-29T03:34:22;13.98;;;7.32;;
23046;SDS011;11691;51.462;6.902;2022-10-29T03:36:48;19.33;;;7.63;;
23046;SDS011;11691;51.462;6.902;2022-10-29T03:39:14;13.95;;;6.57;;
23046;SDS011;11691;51.462;6.902;2022-10-29T03:41:40;21.02;;;7.35;;
23046;SDS011;11691;51.462;6.902;2022-10-29T03:44:06;14.13;;;6.10;;
23046;SDS011;11691;51.462;6.902;2022-10-29T03:46:32;24.63;;;8.20;;
23046;SDS011;11691;51.462;6.902;2022-10-29T03:48:58;20.40;;;7.18;;
23046;SDS011;11691;51.462;6.902;2022-10-29T03:51:24;15.77;;;6.93;;
23046;SDS011;11691;51.462;6.902;2022-10-29T03:53:50;15.55;;;6.38;;
23046;SDS011;11691;51.462;6.902;2022-10-29T03:56:16;17.65;;;6.97;;
23046;SDS011;11691;51.462;6.902;2022-10-29T03:58:42;16.80;;;7.10;;
23046;SDS011;11691;51.462;6.902;2022-10-29T04:01:08;19.33;;;7.30;;
23046;SDS011;11691;51.462;6.902;2022-10-29T04:03:35;17.10;;;7.07;;
23046;SDS011;11691;51.462;6.902;2022-10-29T04:06:07;18.60;;;7.30;;
23046;SDS011;11691;51.462;6.902;2022-10-29T04:08:33;18.42;;;6.88;;
23046;SDS011;11691;51.462;6.902;2022-10-29T04:10:59;14.65;;;6.88;;
23046;SDS011;11691;51.462;6.902;2022-10-29T04:13:25;15.65;;;6.90;;
23046;SDS011;11691;51.462;6.902;2022-10-29T04:15:55;18.85;;;6.85;;
23046;SDS011;11691;51.462;6.902;2022-10-29T04:18:21;16.35;;;6.25;;
23046;SDS011;11691;51.462;6.902;2022-10-29T04:20:47;16.10;;;6.85;;
23046;SDS011;11691;51.462;6.902;2022-10-29T04:23:13;17.33;;;6.75;;
23046;SDS011;11691;51.462;6.902;2022-10-29T04:25:39;13.48;;;6.57;;
23046;SDS011;11691;51.462;6.902;2022-10-29T04:28:05;16.60;;;6.10;;
23046;SDS011;11691;51.462;6.902;2022-10-29T04:30:31;14.32;;;6.70;;
23046;SDS011;11691;51.462;6.902;2022-10-29T04:32:58;18.45;;;7.03;;
23046;SDS011;11691;51.462;6.902;2022-10-29T04:35:24;20.85;;;6.70;;
23046;SDS011;11691;51.462;6.902;2022-10-29T04:37:51;18.40;;;7.05;;
23046;SDS011;11691;51.462;6.902;2022-10-29T04:40:19;15.20;;;7.82;;
23046;SDS011;11691;51.462;6.902;2022-10-29T04:42:46;14.13;;;6.47;;
23046;SDS011;11691;51.462;6.902;2022-10-29T04:45:12;18.08;;;7.03;;
23046;SDS011;11691;51.462;6.902;2022-10-29T04:47:38;15.40;;;7.30;;
23046;SDS011;11691;51.462;6.902;2022-10-29T04:50:04;14.85;;;6.93;;
23046;SDS011;11691;51.462;6.902;2022-10-29T04:52:30;14.43;;;6.32;;
23046;SDS011;11691;51.462;6.902;2022-10-29T04:54:56;14.00;;;5.90;;
23046;SDS011;11691;51.462;6.902;2022-10-29T04:57:22;17.45;;;6.47;;
23046;SDS011;11691;51.462;6.902;2022-10-29T04:59:48;16.08;;;6.15;;
23046;SDS011;11691;51.462;6.902;2022-10-29T05:02:14;15.23;;;6.05;;
23046;SDS011;11691;51.462;6.902;2022-10-29T05:04:40;17.42;;;5.90;;
23046;SDS011;11691;51.462;6.902;2022-10-29T05:07:06;18.98;;;5.70;;
23046;SDS011;11691;51.462;6.902;2022-10-29T05:09:32;12.25;;;5.70;;
23046;SDS011;11691;51.462;6.902;2022-10-29T05:11:58;15.00;;;6.28;;
23046;SDS011;11691;51.462;6.902;2022-10-29T05:14:23;13.40;;;6.25;;
23046;SDS011;11691;51.462;6.902;2022-10-29T05:16:49;17.38;;;6.20;;
23046;SDS011;11691;51.462;6.902;2022-10-29T05:19:15;17.83;;;6.28;;
23046;SDS011;11691;51.462;6.902;2022-10-29T05:21:41;12.43;;;5.43;;
23046;SDS011;11691;51.462;6.902;2022-10-29T05:24:07;18.67;;;6.07;;
23046;SDS011;11691;51.462;6.902;2022-10-29T05:26:33;11.15;;;5.00;;
23046;SDS011;11691;51.462;6.902;2022-10-29T05:28:59;18.33;;;5.88;;
23046;SDS011;11691;51.462;6.902;2022-10-29T05:31:25;21.20;;;6.50;;
23046;SDS011;11691;51.462;6.902;2022-10-29T05:33:51;20.25;;;6.10;;
23046;SDS011;11691;51.462;6.902;2022-10-29T05:36:17;15.27;;;6.40;;
23046;SDS011;11691;51.462;6.902;2022-10-29T05:38:43;19.80;;;6.57;;
23046;SDS011;11691;51.462;6.902;2022-10-29T05:41:09;14.70;;;5.82;;
23046;SDS011;11691;51.462;6.902;2022-10-29T05:43:35;25.90;;;6.43;;
23046;SDS011;11691;51.462;6.902;2022-10-29T05:46:02;13.88;;;6.40;;
23046;SDS011;11691;51.462;6.902;2022-10-29T05:48:31;17.80;;;6.18;;
23046;SDS011;11691;51.462;6.902;2022-10-29T05:50:56;17.70;;;5.78;;
23046;SDS011;11691;51.462;6.902;2022-10-29T05:53:22;15.65;;;6.00;;
23046;SDS011;11691;51.462;6.902;2022-10-29T05:55:48;16.50;;;5.75;;
23046;SDS011;11691;51.462;6.902;2022-10-29T05:58:14;14.75;;;5.78;;
23046;SDS011;11691;51.462;6.902;2022-10-29T06:00:41;16.58;;;6.13;;
23046;SDS011;11691;51.462;6.902;2022-10-29T06:03:10;13.85;;;5.85;;
23046;SDS011;11691;51.462;6.902;2022-10-29T06:05:46;15.73;;;5.95;;
23046;SDS011;11691;51.462;6.902;2022-10-29T06:08:12;14.02;;;5.63;;
23046;SDS011;11691;51.462;6.902;2022-10-29T06:10:39;16.35;;;5.15;;
23046;SDS011;11691;51.462;6.902;2022-10-29T06:13:14;18.45;;;5.05;;
23046;SDS011;11691;51.462;6.902;2022-10-29T06:15:41;16.35;;;5.18;;
23046;SDS011;11691;51.462;6.902;2022-10-29T06:18:08;12.50;;;5.35;;
23046;SDS011;11691;51.462;6.902;2022-10-29T06:20:34;18.55;;;6.22;;
23046;SDS011;11691;51.462;6.902;2022-10-29T06:23:00;14.70;;;5.22;;
23046;SDS011;11691;51.462;6.902;2022-10-29T06:25:26;9.90;;;4.85;;
23046;SDS011;11691;51.462;6.902;2022-10-29T06:30:32;18.25;;;5.25;;
23046;SDS011;11691;51.462;6.902;2022-10-29T06:32:59;16.60;;;4.70;;
23046;SDS011;11691;51.462;6.902;2022-10-29T06:35:25;10.77;;;5.22;;
23046;SDS011;11691;51.462;6.902;2022-10-29T06:37:52;16.45;;;5.30;;
23046;SDS011;11691;51.462;6.902;2022-10-29T06:40:18;16.98;;;5.22;;
23046;SDS011;11691;51.462;6.902;2022-10-29T06:42:44;13.20;;;4.95;;
23046;SDS011;11691;51.462;6.902;2022-10-29T06:45:10;16.08;;;5.07;;
23046;SDS011;11691;51.462;6.902;2022-10-29T06:47:42;12.65;;;4.85;;
23046;SDS011;11691;51.462;6.902;2022-10-29T06:50:09;12.25;;;5.28;;
23046;SDS011;11691;51.462;6.902;2022-10-29T06:52:36;7.65;;;4.28;;
23046;SDS011;11691;51.462;6.902;2022-10-29T06:55:03;15.45;;;5.18;;
23046;SDS011;11691;51.462;6.902;2022-10-29T06:57:29;14.32;;;5.18;;
23046;SDS011;11691;51.462;6.902;2022-10-29T06:59:55;16.95;;;5.63;;
23046;SDS011;11691;51.462;6.902;2022-10-29T07:02:22;13.68;;;4.90;;
23046;SDS011;11691;51.462;6.902;2022-10-29T07:04:48;13.13;;;5.13;;
23046;SDS011;11691;51.462;6.902;2022-10-29T07:07:14;12.30;;;4.43;;
23046;SDS011;11691;51.462;6.902;2022-10-29T07:09:40;14.30;;;5.18;;
23046;SDS011;11691;51.462;6.902;2022-10-29T07:12:09;13.25;;;5.13;;
23046;SDS011;11691;51.462;6.902;2022-10-29T07:14:35;16.45;;;5.05;;
23046;SDS011;11691;51.462;6.902;2022-10-29T07:17:01;13.32;;;4.75;;
23046;SDS011;11691;51.462;6.902;2022-10-29T07:19:27;13.82;;;4.78;;
23046;SDS011;11691;51.462;6.902;2022-10-29T07:21:53;13.98;;;5.28;;
23046;SDS011;11691;51.462;6.902;2022-10-29T07:24:19;11.13;;;4.55;;
23046;SDS011;11691;51.462;6.902;2022-10-29T07:26:45;8.95;;;4.70;;
23046;SDS011;11691;51.462;6.902;2022-10-29T07:29:12;16.38;;;5.32;;
23046;SDS011;11691;51.462;6.902;2022-10-29T07:31:38;11.23;;;4.80;;
23046;SDS011;11691;51.462;6.902;2022-10-29T07:34:04;15.63;;;4.55;;
23046;SDS011;11691;51.462;6.902;2022-10-29T07:36:30;9.10;;;4.32;;
23046;SDS011;11691;51.462;6.902;2022-10-29T07:38:56;16.30;;;4.50;;
23046;SDS011;11691;51.462;6.902;2022-10-29T07:41:22;9.30;;;3.65;;
23046;SDS011;11691;51.462;6.902;2022-10-29T07:43:48;11.23;;;4.20;;
23046;SDS011;11691;51.462;6.902;2022-10-29T07:46:14;11.23;;;4.32;;
23046;SDS011;11691;51.462;6.902;2022-10-29T07:48:40;9.65;;;4.10;;
23046;SDS011;11691;51.462;6.902;2022-10-29T07:51:06;8.38;;;3.38;;
23046;SDS011;11691;51.462;6.902;2022-10-29T07:53:32;11.18;;;3.75;;
23046;SDS011;11691;51.462;6.902;2022-10-29T07:55:58;11.23;;;3.65;;
23046;SDS011;11691;51.462;6.902;2022-10-29T07:58:24;12.27;;;4.28;;
23046;SDS011;11691;51.462;6.902;2022-10-29T08:00:50;14.40;;;3.80;;
23046;SDS011;11691;51.462;6.902;2022-10-29T08:03:17;8.07;;;3.38;;
23046;SDS011;11691;51.462;6.902;2022-10-29T08:05:43;8.95;;;3.72;;
23046;SDS011;11691;51.462;6.902;2022-10-29T08:08:11;10.25;;;3.83;;
23046;SDS011;11691;51.462;6.902;2022-10-29T08:10:37;8.20;;;3.40;;
23046;SDS011;11691;51.462;6.902;2022-10-29T08:13:04;12.10;;;3.75;;
23046;SDS011;11691;51.462;6.902;2022-10-29T08:15:30;14.23;;;4.05;;
23046;SDS011;11691;51.462;6.902;2022-10-29T08:17:57;11.27;;;3.70;;
23046;SDS011;11691;51.462;6.902;2022-10-29T08:20:24;17.38;;;3.70;;
23046;SDS011;11691;51.462;6.902;2022-10-29T08:22:51;8.95;;;3.90;;
23046;SDS011;11691;51.462;6.902;2022-10-29T08:25:17;10.43;;;3.92;;
23046;SDS011;11691;51.462;6.902;2022-10-29T08:27:43;12.98;;;3.88;;
23046;SDS011;11691;51.462;6.902;2022-10-29T08:30:10;16.02;;;4.35;;
23046;SDS011;11691;51.462;6.902;2022-10-29T08:32:46;11.82;;;3.40;;
23046;SDS011;11691;51.462;6.902;2022-10-29T08:35:12;14.43;;;3.67;;
23046;SDS011;11691;51.462;6.902;2022-10-29T08:37:41;12.02;;;3.85;;
23046;SDS011;11691;51.462;6.902;2022-10-29T08:40:11;9.13;;;3.22;;
23046;SDS011;11691;51.462;6.902;2022-10-29T08:47:48;9.80;;;3.58;;
23046;SDS011;11691;51.462;6.902;2022-10-29T08:50:21;11.52;;;3.50;;
23046;SDS011;11691;51.462;6.902;2022-10-29T08:52:52;8.90;;;4.13;;
23046;SDS011;11691;51.462;6.902;2022-10-29T08:55:19;16.63;;;3.85;;
23046;SDS011;11691;51.462;6.902;2022-10-29T08:58:20;8.73;;;3.20;;
23046;SDS011;11691;51.462;6.902;2022-10-29T09:00:38;13.15;;;4.03;;
23046;SDS011;11691;51.462;6.902;2022-10-29T09:03:12;12.55;;;3.53;;
23046;SDS011;11691;51.462;6.902;2022-10-29T09:06:21;6.03;;;3.20;;
23046;SDS011;11691;51.462;6.902;2022-10-29T09:22:50;10.65;;;3.47;;
23046;SDS011;11691;51.462;6.902;2022-10-29T09:25:18;15.18;;;4.00;;
23046;SDS011;11691;51.462;6.902;2022-10-29T09:27:51;12.13;;;3.38;;
23046;SDS011;11691;51.462;6.902;2022-10-29T09:30:21;11.55;;;3.72;;
23046;SDS011;11691;51.462;6.902;2022-10-29T09:32:58;11.63;;;3.90;;
23046;SDS011;11691;51.462;6.902;2022-10-29T09:38:14;11.57;;;3.92;;
23046;SDS011;11691;51.462;6.902;2022-10-29T09:40:46;9.93;;;3.83;;
23046;SDS011;11691;51.462;6.902;2022-10-29T09:43:15;13.15;;;3.88;;
23046;SDS011;11691;51.462;6.902;2022-10-29T09:45:59;9.15;;;3.72;;
23046;SDS011;11691;51.462;6.902;2022-10-29T09:49:02;12.25;;;3.35;;
23046;SDS011;11691;51.462;6.902;2022-10-29T09:51:51;10.77;;;3.90;;
23046;SDS011;11691;51.462;6.902;2022-10-29T09:54:22;14.80;;;4.03;;
23046;SDS011;11691;51.462;6.902;2022-10-29T09:56:49;13.27;;;3.67;;
23046;SDS011;11691;51.462;6.902;2022-10-29T10:01:52;13.02;;;4.13;;
23046;SDS011;11691;51.462;6.902;2022-10-29T10:04:21;8.05;;;3.63;;
23046;SDS011;11691;51.462;6.902;2022-10-29T10:07:05;11.80;;;3.58;;
23046;SDS011;11691;51.462;6.902;2022-10-29T10:12:18;13.18;;;3.63;;
23046;SDS011;11691;51.462;6.902;2022-10-29T10:14:46;12.05;;;3.42;;
23046;SDS011;11691;51.462;6.902;2022-10-29T10:17:12;14.68;;;3.80;;
23046;SDS011;11691;51.462;6.902;2022-10-29T10:19:42;9.43;;;3.22;;
23046;SDS011;11691;51.462;6.902;2022-10-29T10:22:19;13.73;;;4.10;;
23046;SDS011;11691;51.462;6.902;2022-10-29T10:24:45;9.82;;;3.72;;
23046;SDS011;11691;51.462;6.902;2022-10-29T10:29:43;11.57;;;3.63;;
23046;SDS011;11691;51.462;6.902;2022-10-29T10:32:27;13.50;;;4.07;;
23046;SDS011;11691;51.462;6.902;2022-10-29T10:34:53;10.48;;;3.60;;
23046;SDS011;11691;51.462;6.902;2022-10-29T10:37:19;16.42;;;4.20;;
23046;SDS011;11691;51.462;6.902;2022-10-29T10:39:49;13.02;;;3.38;;
23046;SDS011;11691;51.462;6.902;2022-10-29T10:44:49;16.75;;;3.75;;
23046;SDS011;11691;51.462;6.902;2022-10-29T10:47:20;15.32;;;3.97;;
23046;SDS011;11691;51.462;6.902;2022-10-29T10:49:49;9.85;;;3.30;;
23046;SDS011;11691;51.462;6.902;2022-10-29T10:55:06;14.55;;;3.95;;
23046;SDS011;11691;51.462;6.902;2022-10-29T10:57:39;13.82;;;3.40;;
23046;SDS011;11691;51.462;6.902;2022-10-29T11:05:36;7.47;;;3.40;;
23046;SDS011;11691;51.462;6.902;2022-10-29T11:10:51;8.77;;;3.75;;
23046;SDS011;11691;51.462;6.902;2022-10-29T11:13:19;11.98;;;3.85;;
23046;SDS011;11691;51.462;6.902;2022-10-29T11:15:54;13.07;;;3.72;;
23046;SDS011;11691;51.462;6.902;2022-10-29T11:18:35;10.85;;;3.78;;
23046;SDS011;11691;51.462;6.902;2022-10-29T11:21:20;10.00;;;3.53;;
23046;SDS011;11691;51.462;6.902;2022-10-29T11:23:51;15.70;;;4.35;;
23046;SDS011;11691;51.462;6.902;2022-10-29T11:26:29;14.60;;;3.70;;
23046;SDS011;11691;51.462;6.902;2022-10-29T11:31:43;12.73;;;3.90;;
23046;SDS011;11691;51.462;6.902;2022-10-29T11:34:22;14.98;;;3.63;;
23046;SDS011;11691;51.462;6.902;2022-10-29T11:36:51;8.23;;;3.20;;
23046;SDS011;11691;51.462;6.902;2022-10-29T11:40:02;13.15;;;3.65;;
23046;SDS011;11691;51.462;6.902;2022-10-29T11:42:08;12.98;;;4.05;;
23046;SDS011;11691;51.462;6.902;2022-10-29T11:44:36;11.48;;;3.42;;
23046;SDS011;11691;51.462;6.902;2022-10-29T11:50:01;11.00;;;3.58;;
23046;SDS011;11691;51.462;6.902;2022-10-29T11:53:00;12.35;;;3.50;;
23046;SDS011;11691;51.462;6.902;2022-10-29T11:58:30;12.60;;;3.70;;
23046;SDS011;11691;51.462;6.902;2022-10-29T12:08:59;11.57;;;3.05;;
23046;SDS011;11691;51.462;6.902;2022-10-29T12:11:38;12.15;;;4.00;;
23046;SDS011;11691;51.462;6.902;2022-10-29T12:27:16;10.50;;;3.67;;
23046;SDS011;11691;51.462;6.902;2022-10-29T12:29:52;14.98;;;3.65;;
23046;SDS011;11691;51.462;6.902;2022-10-29T12:35:18;11.95;;;3.25;;
23046;SDS011;11691;51.462;6.902;2022-10-29T12:37:50;10.35;;;2.78;;
23046;SDS011;11691;51.462;6.902;2022-10-29T12:40:22;9.80;;;3.28;;
23046;SDS011;11691;51.462;6.902;2022-10-29T12:42:50;15.38;;;2.95;;
23046;SDS011;11691;51.462;6.902;2022-10-29T12:45:29;9.77;;;3.13;;
23046;SDS011;11691;51.462;6.902;2022-10-29T12:53:28;8.50;;;3.22;;
23046;SDS011;11691;51.462;6.902;2022-10-29T12:55:57;9.45;;;3.28;;
23046;SDS011;11691;51.462;6.902;2022-10-29T12:58:42;11.80;;;2.95;;
23046;SDS011;11691;51.462;6.902;2022-10-29T13:03:59;13.20;;;3.53;;
23046;SDS011;11691;51.462;6.902;2022-10-29T13:09:20;15.45;;;3.42;;
23046;SDS011;11691;51.462;6.902;2022-10-29T13:12:08;19.13;;;3.22;;
23046;SDS011;11691;51.462;6.902;2022-10-29T13:14:42;13.90;;;3.10;;
23046;SDS011;11691;51.462;6.902;2022-10-29T13:17:29;10.68;;;3.55;;
23046;SDS011;11691;51.462;6.902;2022-10-29T13:19:58;11.90;;;3.45;;
23046;SDS011;11691;51.462;6.902;2022-10-29T13:22:32;10.55;;;3.05;;
23046;SDS011;11691;51.462;6.902;2022-10-29T13:27:52;12.07;;;3.83;;
23046;SDS011;11691;51.462;6.902;2022-10-29T13:30:22;14.88;;;3.85;;
23046;SDS011;11691;51.462;6.902;2022-10-29T13:32:52;15.90;;;3.40;;
23046;SDS011;11691;51.462;6.902;2022-10-29T13:45:44;11.88;;;3.35;;
23046;SDS011;11691;51.462;6.902;2022-10-29T13:48:12;13.93;;;3.45;;
23046;SDS011;11691;51.462;6.902;2022-10-29T13:50:57;10.15;;;3.30;;
23046;SDS011;11691;51.462;6.902;2022-10-29T13:53:33;21.88;;;6.45;;
23046;SDS011;11691;51.462;6.902;2022-10-29T13:56:08;23.92;;;11.52;;
23046;SDS011;11691;51.462;6.902;2022-10-29T13:58:37;25.08;;;12.32;;
23046;SDS011;11691;51.462;6.902;2022-10-29T14:01:09;11.68;;;4.82;;
23046;SDS011;11691;51.462;6.902;2022-10-29T14:06:24;18.90;;;8.25;;
23046;SDS011;11691;51.462;6.902;2022-10-29T14:09:05;27.48;;;13.25;;
23046;SDS011;11691;51.462;6.902;2022-10-29T14:11:37;49.60;;;25.45;;
23046;SDS011;11691;51.462;6.902;2022-10-29T14:14:03;35.15;;;17.60;;
23046;SDS011;11691;51.462;6.902;2022-10-29T14:16:31;16.67;;;7.25;;
23046;SDS011;11691;51.462;6.902;2022-10-29T14:19:10;14.50;;;5.93;;
23046;SDS011;11691;51.462;6.902;2022-10-29T14:21:43;52.83;;;27.20;;
23046;SDS011;11691;51.462;6.902;2022-10-29T14:24:12;35.88;;;19.67;;
23046;SDS011;11691;51.462;6.902;2022-10-29T14:26:40;30.52;;;14.90;;
23046;SDS011;11691;51.462;6.902;2022-10-29T14:29:20;52.15;;;30.90;;
23046;SDS011;11691;51.462;6.902;2022-10-29T14:31:46;24.40;;;11.88;;
23046;SDS011;11691;51.462;6.902;2022-10-29T14:34:28;22.00;;;11.93;;
23046;SDS011;11691;51.462;6.902;2022-10-29T14:36:58;15.77;;;7.20;;
23046;SDS011;11691;51.462;6.902;2022-10-29T14:39:27;16.95;;;4.72;;
23046;SDS011;11691;51.462;6.902;2022-10-29T14:41:58;18.48;;;3.92;;
23046;SDS011;11691;51.462;6.902;2022-10-29T14:44:28;12.20;;;3.42;;
23046;SDS011;11691;51.462;6.902;2022-10-29T14:47:06;13.23;;;3.28;;
23046;SDS011;11691;51.462;6.902;2022-10-29T14:49:38;11.25;;;3.30;;
23046;SDS011;11691;51.462;6.902;2022-10-29T14:52:07;10.70;;;3.47;;
23046;SDS011;11691;51.462;6.902;2022-10-29T14:54:50;12.40;;;3.30;;
23046;SDS011;11691;51.462;6.902;2022-10-29T14:57:17;9.05;;;2.97;;
23046;SDS011;11691;51.462;6.902;2022-10-29T14:59:45;14.50;;;3.65;;
23046;SDS011;11691;51.462;6.902;2022-10-29T15:02:12;11.85;;;3.53;;
23046;SDS011;11691;51.462;6.902;2022-10-29T15:04:45;10.15;;;3.15;;
23046;SDS011;11691;51.462;6.902;2022-10-29T15:09:46;12.57;;;3.42;;
23046;SDS011;11691;51.462;6.902;2022-10-29T15:17:53;12.18;;;3.28;;
23046;SDS011;11691;51.462;6.902;2022-10-29T15:22:53;10.70;;;3.00;;
23046;SDS011;11691;51.462;6.902;2022-10-29T15:27:56;14.70;;;3.85;;
23046;SDS011;11691;51.462;6.902;2022-10-29T15:30:27;15.48;;;3.05;;
23046;SDS011;11691;51.462;6.902;2022-10-29T15:32:59;12.25;;;3.10;;
23046;SDS011;11691;51.462;6.902;2022-10-29T15:35:25;14.15;;;4.15;;
23046;SDS011;11691;51.462;6.902;2022-10-29T15:37:51;7.85;;;3.15;;
23046;SDS011;11691;51.462;6.902;2022-10-29T15:40:19;13.60;;;3.50;;
23046;SDS011;11691;51.462;6.902;2022-10-29T15:42:45;9.70;;;3.75;;
23046;SDS011;11691;51.462;6.902;2022-10-29T15:47:42;12.82;;;2.85;;
23046;SDS011;11691;51.462;6.902;2022-10-29T15:50:10;8.13;;;2.88;;
23046;SDS011;11691;51.462;6.902;2022-10-29T15:55:24;11.73;;;2.80;;
23046;SDS011;11691;51.462;6.902;2022-10-29T15:58:10;7.60;;;3.33;;
23046;SDS011;11691;51.462;6.902;2022-10-29T16:00:38;13.02;;;3.60;;
23046;SDS011;11691;51.462;6.902;2022-10-29T16:03:15;15.40;;;3.95;;
23046;SDS011;11691;51.462;6.902;2022-10-29T16:05:46;14.55;;;3.28;;
23046;SDS011;11691;51.462;6.902;2022-10-29T16:11:02;11.23;;;4.03;;
23046;SDS011;11691;51.462;6.902;2022-10-29T16:13:29;15.73;;;3.65;;
23046;SDS011;11691;51.462;6.902;2022-10-29T16:15:56;12.60;;;3.17;;
23046;SDS011;11691;51.462;6.902;2022-10-29T16:18:22;10.40;;;3.47;;
23046;SDS011;11691;51.462;6.902;2022-10-29T16:20:48;18.85;;;3.80;;
23046;SDS011;11691;51.462;6.902;2022-10-29T16:23:17;14.27;;;3.20;;
23046;SDS011;11691;51.462;6.902;2022-10-29T16:25:43;13.23;;;4.00;;
23046;SDS011;11691;51.462;6.902;2022-10-29T16:28:09;13.50;;;3.13;;
23046;SDS011;11691;51.462;6.902;2022-10-29T16:30:36;13.30;;;3.28;;
23046;SDS011;11691;51.462;6.902;2022-10-29T16:33:01;12.05;;;3.00;;
23046;SDS011;11691;51.462;6.902;2022-10-29T16:35:27;14.20;;;3.67;;
23046;SDS011;11691;51.462;6.902;2022-10-29T16:37:54;9.80;;;3.10;;
23046;SDS011;11691;51.462;6.902;2022-10-29T16:40:21;12.35;;;3.42;;
23046;SDS011;11691;51.462;6.902;2022-10-29T16:42:48;8.25;;;3.30;;
23046;SDS011;11691;51.462;6.902;2022-10-29T16:45:19;11.68;;;3.30;;
23046;SDS011;11691;51.462;6.902;2022-10-29T16:47:45;11.55;;;4.22;;
23046;SDS011;11691;51.462;6.902;2022-10-29T16:50:15;9.57;;;4.18;;
23046;SDS011;11691;51.462;6.902;2022-10-29T16:53:03;9.02;;;4.45;;
23046;SDS011;11691;51.462;6.902;2022-10-29T16:55:30;14.23;;;4.55;;
23046;SDS011;11691;51.462;6.902;2022-10-29T16:57:56;12.75;;;4.70;;
23046;SDS011;11691;51.462;6.902;2022-10-29T17:00:22;13.70;;;3.80;;
23046;SDS011;11691;51.462;6.902;2022-10-29T17:02:57;11.30;;;4.00;;
23046;SDS011;11691;51.462;6.902;2022-10-29T17:05:23;12.20;;;4.10;;
23046;SDS011;11691;51.462;6.902;2022-10-29T17:07:52;15.10;;;4.20;;
23046;SDS011;11691;51.462;6.902;2022-10-29T17:10:18;10.38;;;4.40;;
23046;SDS011;11691;51.462;6.902;2022-10-29T17:12:44;13.65;;;4.40;;
23046;SDS011;11691;51.462;6.902;2022-10-29T17:15:11;12.90;;;4.07;;
23046;SDS011;11691;51.462;6.902;2022-10-29T17:17:37;8.35;;;3.33;;
23046;SDS011;11691;51.462;6.902;2022-10-29T17:20:03;12.45;;;3.58;;
23046;SDS011;11691;51.462;6.902;2022-10-29T17:22:30;10.88;;;4.20;;
23046;SDS011;11691;51.462;6.902;2022-10-29T17:24:56;7.70;;;3.40;;
23046;SDS011;11691;51.462;6.902;2022-10-29T17:27:22;8.90;;;3.65;;